Time;durP1;ratioP1;P1;durP2;ratioP2;P2;SDS_P1;SDS_P2;PMS_P1;PMS_P2;Temp;Humidity;BMP_temperature;BMP_pressure;BME280_temperature;BME280_humidity;BME280_pressure;Samples;Min_cycle;Max_cycle;Signal;HPM_P1;HPM_P2
2022/09/25 00:01:08;;;;;;;40.20;27.50;;;;;;;5.75;76.44;99678.69;213061;1276;142248;-64
2022/09/25 00:06:20;;;;;;;38.50;27.20;;;;;;;5.68;77.07;99673.36;213275;1276;141314;-63
2022/09/25 00:11:29;;;;;;;38.20;29.80;;;;;;;5.59;76.86;99666.08;213319;1276;140619;-64
2022/09/25 00:16:33;;;;;;;42.90;29.50;;;;;;;5.55;76.92;99658.19;213680;1276;141408;-65
2022/09/25 00:21:37;;;;;;;38.40;29.50;;;;;;;5.53;77.03;99656.75;213137;1276;143113;-66
2022/09/25 00:26:42;;;;;;;36.00;30.80;;;;;;;5.53;76.86;99655.98;213659;1276;141842;-65
2022/09/25 00:31:45;;;;;;;46.70;31.20;;;;;;;5.46;76.97;99654.05;215633;1276;140607;-65
2022/09/25 00:36:48;;;;;;;42.90;32.70;;;;;;;5.43;77.10;99654.83;213350;1276;143871;-62
2022/09/25 00:41:51;;;;;;;41.30;31.90;;;;;;;5.42;77.24;99653.28;215792;1276;140781;-63
2022/09/25 00:46:53;;;;;;;42.10;31.10;;;;;;;5.45;77.33;99649.86;215845;1276;141235;-64
2022/09/25 00:52:02;;;;;;;38.70;29.00;;;;;;;5.48;76.91;99648.33;215692;1276;141342;-64
2022/09/25 00:57:09;;;;;;;34.50;30.00;;;;;;;5.42;76.64;99649.53;215899;1276;141006;-67
2022/09/25 01:02:26;;;;;;;41.60;27.50;;;;;;;5.33;76.63;99643.67;214780;1276;139728;-64
2022/09/25 01:07:28;;;;;;;33.00;24.80;;;;;;;5.27;76.77;99648.61;215188;1276;141533;-65
2022/09/25 01:12:30;;;;;;;42.50;30.30;;;;;;;5.21;76.90;99643.22;213494;1276;141472;-64
2022/09/25 01:18:01;;;;;;;39.40;26.10;;;;;;;5.17;76.90;99637.86;213670;1276;143659;-64
2022/09/25 01:23:36;;;;;;;36.10;28.20;;;;;;;5.12;76.99;99640.93;214419;1276;140994;-66
2022/09/25 01:29:06;;;;;;;36.50;28.20;;;;;;;5.10;77.26;99637.84;213547;1276;140708;-64
2022/09/25 01:34:39;;;;;;;34.90;28.50;;;;;;;5.07;77.21;99638.53;213961;1276;140993;-64
2022/09/25 01:39:55;;;;;;;37.30;25.70;;;;;;;5.02;77.14;99635.87;213254;1276;141170;-63
2022/09/25 01:45:05;;;;;;;44.00;29.00;;;;;;;4.94;77.24;99636.67;213452;1276;140524;-63
2022/09/25 01:50:16;;;;;;;38.50;26.20;;;;;;;4.87;77.38;99633.73;213396;1276;140532;-64
2022/09/25 01:55:35;;;;;;;31.70;25.60;;;;;;;4.81;77.18;99634.27;213217;1276;140607;-63
2022/09/25 02:00:40;;;;;;;;;;;;;;;4.77;77.37;99642.29;213112;1276;141163;-63
2022/09/25 02:05:48;;;;;;;35.90;23.80;;;;;;;4.70;77.68;99639.14;213623;1277;126209;-63
2022/09/25 02:10:59;;;;;;;31.60;23.80;;;;;;;4.70;77.86;99635.31;214643;1276;140098;-64
2022/09/25 02:16:09;;;;;;;33.10;23.30;;;;;;;4.63;77.42;99633.26;214233;1276;140411;-63
2022/09/25 02:21:30;;;;;;;32.30;23.70;;;;;;;4.61;77.69;99633.27;213504;1276;140740;-64
2022/09/25 02:26:34;;;;;;;29.60;23.00;;;;;;;4.67;78.14;99632.05;213413;1276;140306;-64
2022/09/25 02:31:48;;;;;;;28.50;23.40;;;;;;;4.64;77.78;99630.78;214205;1276;140837;-66
2022/09/25 02:36:52;;;;;;;30.50;23.60;;;;;;;4.59;77.73;99624.39;215603;1276;141377;-68
2022/09/25 02:42:10;;;;;;;26.70;21.40;;;;;;;4.58;77.66;99621.06;215485;1276;140072;-66
2022/09/25 02:47:24;;;;;;;29.50;20.80;;;;;;;4.52;77.63;99618.27;215831;1276;140881;-66
2022/09/25 02:53:04;;;;;;;31.00;24.10;;;;;;;4.51;77.56;99614.64;215952;1276;140807;-66
2022/09/25 02:58:21;;;;;;;28.40;20.90;;;;;;;4.49;77.78;99612.20;215559;1276;140784;-66
2022/09/25 03:03:25;;;;;;;20.70;18.50;;;;;;;4.42;77.69;99613.05;216072;1276;140828;-66
2022/09/25 03:08:37;;;;;;;28.90;22.50;;;;;;;4.34;77.77;99608.84;215027;1276;140701;-65
2022/09/25 03:13:41;;;;;;;28.80;20.20;;;;;;;4.34;77.75;99605.95;214140;1276;142026;-65
2022/09/25 03:18:46;;;;;;;30.50;23.60;;;;;;;4.33;77.68;99605.02;213767;1276;232151;-64
2022/09/25 03:23:49;;;;;;;25.70;21.40;;;;;;;4.32;77.83;99611.23;213236;1276;142353;-64
2022/09/25 03:28:53;;;;;;;24.10;19.60;;;;;;;4.32;78.02;99607.54;214744;1276;141890;-65
2022/09/25 03:33:56;;;;;;;22.60;18.40;;;;;;;4.29;78.00;99600.99;213649;1276;141338;-64
2022/09/25 03:39:00;;;;;;;30.30;19.10;;;;;;;4.20;77.84;99597.77;214150;1276;142544;-63
2022/09/25 03:44:02;;;;;;;31.20;22.60;;;;;;;4.18;78.00;99599.70;213210;1276;142796;-63
2022/09/25 03:49:09;;;;;;;28.70;22.40;;;;;;;4.15;77.88;99607.23;213558;1276;141681;-63
2022/09/25 03:54:12;;;;;;;28.80;20.50;;;;;;;4.10;77.94;99607.33;213551;1276;145364;-63
2022/09/25 03:59:15;;;;;;;26.30;19.50;;;;;;;3.99;77.85;99611.13;213451;1276;140689;-63
2022/09/25 04:04:18;;;;;;;21.50;18.10;;;;;;;3.90;78.27;99617.79;214419;1276;139968;-64
2022/09/25 04:09:22;;;;;;;28.30;21.60;;;;;;;3.86;78.28;99616.33;213352;1276;161592;-63
2022/09/25 04:14:25;;;;;;;25.40;20.30;;;;;;;3.81;78.31;99609.86;213064;1276;141316;-63
2022/09/25 04:19:29;;;;;;;26.40;20.80;;;;;;;3.77;78.23;99605.81;214442;1276;140401;-64
2022/09/25 04:24:49;;;;;;;26.00;19.90;;;;;;;3.75;78.58;99605.02;214107;1276;141608;-64
2022/09/25 04:29:52;;;;;;;28.10;21.00;;;;;;;3.77;78.67;99609.83;214260;1276;141469;-64
2022/09/25 04:34:55;;;;;;;31.70;20.40;;;;;;;3.80;78.84;99607.77;214353;1276;141281;-64
2022/09/25 04:39:57;;;;;;;32.00;20.70;;;;;;;3.79;79.02;99601.73;213942;1276;141861;-64
2022/09/25 04:45:00;;;;;;;26.10;21.40;;;;;;;3.84;79.21;99603.55;214087;1276;140467;-63
2022/09/25 04:50:03;;;;;;;25.10;19.60;;;;;;;3.82;78.61;99603.60;215889;1276;140823;-66
2022/09/25 04:55:06;;;;;;;28.90;20.40;;;;;;;3.82;78.68;99601.01;214830;1276;141991;-65
2022/09/25 05:00:08;;;;;;;30.70;18.80;;;;;;;3.82;78.66;99605.20;215984;1276;141113;-65
2022/09/25 05:05:13;;;;;;;30.30;20.70;;;;;;;3.85;78.70;99608.66;213087;1276;142407;-65
2022/09/25 05:10:15;;;;;;;30.00;22.60;;;;;;;3.99;79.68;99606.79;214450;1276;140995;-64
2022/09/25 05:15:19;;;;;;;29.50;21.70;;;;;;;4.13;79.45;99609.45;214802;1276;139964;-66
2022/09/25 05:20:23;;;;;;;28.80;22.40;;;;;;;4.20;79.28;99615.30;214150;1276;141104;-65
2022/09/25 05:25:26;;;;;;;29.90;20.70;;;;;;;4.26;79.24;99618.61;213267;1278;140984;-64
2022/09/25 05:30:32;;;;;;;27.00;21.20;;;;;;;4.37;79.28;99616.41;213352;1276;140375;-64
2022/09/25 05:35:34;;;;;;;25.60;19.80;;;;;;;4.47;79.49;99614.95;213601;1277;139952;-64
2022/09/25 05:40:39;;;;;;;26.00;21.30;;;;;;;4.54;79.92;99611.00;213186;1277;139456;-66
2022/09/25 05:45:52;;;;;;;27.00;20.20;;;;;;;4.67;80.05;99609.44;213785;1277;139472;-66
2022/09/25 05:50:56;;;;;;;28.50;22.90;;;;;;;4.81;79.94;99611.55;213782;1277;140259;-66
2022/09/25 05:56:00;;;;;;;33.30;22.80;;;;;;;5.01;80.53;99603.23;213729;1276;140737;-66
2022/09/25 06:01:05;;;;;;;27.80;21.60;;;;;;;5.28;80.66;99600.20;214345;1276;140604;-66
2022/09/25 06:06:07;;;;;;;27.40;21.00;;;;;;;5.56;81.10;99601.16;215041;1275;142056;-67
2022/09/25 06:11:10;;;;;;;36.60;20.90;;;;;;;5.84;81.25;99597.45;214441;1276;140710;-66
2022/09/25 06:16:18;;;;;;;35.00;24.10;;;;;;;6.13;81.04;99597.52;214668;1277;141464;-67
2022/09/25 06:21:21;;;;;;;32.90;23.80;;;;;;;6.42;81.75;99602.48;214110;1276;141461;-65
2022/09/25 06:26:24;;;;;;;33.00;24.70;;;;;;;6.74;82.15;99597.55;213836;1277;143421;-67
2022/09/25 06:31:26;;;;;;;31.70;24.90;;;;;;;7.08;82.40;99592.50;215765;1276;142782;-67
2022/09/25 06:36:28;;;;;;;46.90;29.00;;;;;;;7.42;82.72;99590.92;214278;1276;142131;-64
2022/09/25 06:41:31;;;;;;;42.30;30.70;;;;;;;7.77;82.73;99594.60;214925;1276;141937;-65
2022/09/25 06:46:34;;;;;;;35.20;26.00;;;;;;;8.18;82.86;99589.89;215889;1276;141659;-65
2022/09/25 06:51:38;;;;;;;39.30;27.50;;;;;;;8.65;82.92;99589.52;214926;1276;142454;-65
2022/09/25 06:56:41;;;;;;;33.50;25.90;;;;;;;9.20;83.02;99597.12;214597;1275;140948;-65
2022/09/25 07:01:43;;;;;;;31.10;22.10;;;;;;;9.88;82.69;99595.11;214601;1276;140789;-66
2022/09/25 07:06:46;;;;;;;24.70;19.10;;;;;;;11.32;82.35;99593.24;215135;1275;141514;-66
2022/09/25 07:11:50;;;;;;;31.80;21.40;;;;;;;12.90;81.21;99594.77;213477;1276;232286;-65
2022/09/25 07:16:56;;;;;;;;;;;;;;;14.03;79.41;99591.45;214082;1276;140989;-65
2022/09/25 07:22:00;;;;;;;26.80;18.70;;;;;;;14.76;77.65;99591.79;215517;1276;126915;-67
2022/09/25 07:27:03;;;;;;;24.80;21.20;;;;;;;15.55;76.47;99598.66;213095;1276;140672;-65
2022/09/25 07:32:07;;;;;;;24.90;19.60;;;;;;;16.35;75.57;99602.44;213784;1276;141073;-68
2022/09/25 07:37:10;;;;;;;22.80;18.40;;;;;;;16.70;74.05;99601.10;213470;1276;140780;-67
2022/09/25 07:42:15;;;;;;;23.70;18.50;;;;;;;16.53;71.84;99593.70;214435;1276;141539;-67
2022/09/25 07:47:18;;;;;;;22.90;19.90;;;;;;;15.92;70.84;99592.80;213577;1276;142621;-68
2022/09/25 07:52:20;;;;;;;21.30;18.50;;;;;;;15.79;71.44;99584.51;213028;1276;141747;-71
2022/09/25 07:57:26;;;;;;;28.60;21.60;;;;;;;15.98;71.31;99583.70;214565;1276;141606;-67
2022/09/25 08:02:33;;;;;;;24.80;18.30;;;;;;;15.96;70.35;99586.17;214020;1276;142009;-66
2022/09/25 08:07:37;;;;;;;25.70;19.80;;;;;;;15.95;70.16;99594.73;213258;1276;141585;-67
2022/09/25 08:12:43;;;;;;;22.20;19.90;;;;;;;16.12;69.57;99589.73;213107;1276;142101;-67
2022/09/25 08:17:45;;;;;;;28.90;22.30;;;;;;;15.90;69.04;99585.06;213548;1276;141087;-67
2022/09/25 08:22:51;;;;;;;25.50;20.70;;;;;;;15.94;68.94;99581.56;213259;1276;142327;-67
2022/09/25 08:27:55;;;;;;;25.40;18.80;;;;;;;16.25;68.88;99580.25;214992;1276;142689;-67
2022/09/25 08:33:00;;;;;;;30.00;19.30;;;;;;;16.33;68.23;99575.98;213912;1276;141999;-66
2022/09/25 08:38:04;;;;;;;17.10;14.00;;;;;;;16.54;68.26;99568.77;215307;1274;140597;-66
2022/09/25 08:43:13;;;;;;;27.20;18.70;;;;;;;16.72;67.75;99569.18;215924;1276;140600;-66
2022/09/25 08:53:44;;;;;;;17.30;15.30;;;;;;;17.25;67.13;99560.32;215447;1276;140841;-72
2022/09/25 08:59:03;;;;;;;16.30;13.40;;;;;;;17.34;65.88;99553.40;215735;1276;140785;-75
2022/09/25 09:04:27;;;;;;;19.00;14.10;;;;;;;17.54;65.19;99552.02;215026;1276;142003;-75
2022/09/25 09:09:45;;;;;;;16.60;13.80;;;;;;;17.65;64.92;99548.15;214643;1276;141076;-70
2022/09/25 09:14:51;;;;;;;11.80;10.60;;;;;;;18.00;64.96;99543.67;212978;1276;141151;-71
2022/09/25 09:20:14;;;;;;;12.30;11.00;;;;;;;18.38;64.29;99536.48;213476;1276;140278;-72
2022/09/25 09:25:35;;;;;;;13.40;9.50;;;;;;;18.76;63.73;99531.06;214748;1276;154192;-69
2022/09/25 09:30:56;;;;;;;10.90;9.80;;;;;;;19.12;62.40;99525.20;214310;1276;141300;-70
2022/09/25 09:36:37;;;;;;;10.30;9.20;;;;;;;19.06;61.01;99522.91;213109;1277;141150;-71
2022/09/25 09:41:53;;;;;;;12.00;8.00;;;;;;;19.19;60.70;99521.73;213756;1277;142267;-70
2022/09/25 09:47:38;;;;;;;10.30;9.30;;;;;;;19.32;59.78;99520.31;212703;1277;141086;-67
2022/09/25 09:52:46;;;;;;;8.00;7.30;;;;;;;19.41;58.93;99516.59;212771;1276;141508;-68
2022/09/25 09:58:06;;;;;;;9.60;8.70;;;;;;;19.41;58.07;99511.72;209559;1276;4836164;-69
2022/09/25 10:03:23;;;;;;;11.50;8.40;;;;;;;19.54;57.69;99506.27;213341;1276;141237;-67
2022/09/25 10:08:28;;;;;;;8.40;7.30;;;;;;;19.74;57.69;99501.39;213862;1276;141503;-68
2022/09/25 10:13:39;;;;;;;9.00;8.20;;;;;;;19.86;57.03;99503.96;213761;1276;142225;-70
2022/09/25 10:19:03;;;;;;;9.40;8.50;;;;;;;19.93;56.97;99500.19;214949;1276;141267;-68
2022/09/25 10:24:06;;;;;;;9.00;8.00;;;;;;;20.12;56.28;99490.37;213318;1276;141484;-70
2022/09/25 10:29:09;;;;;;;10.60;9.60;;;;;;;20.28;55.68;99485.86;213159;1276;140750;-68
2022/09/25 10:34:15;;;;;;;9.70;8.40;;;;;;;20.37;55.38;99478.36;214200;1276;140345;-68
2022/09/25 10:39:29;;;;;;;8.10;7.30;;;;;;;20.54;54.84;99469.80;214872;1276;143319;-69
2022/09/25 10:44:49;;;;;;;7.30;6.30;;;;;;;20.65;54.11;99460.11;213740;1276;141226;-69
2022/09/25 10:50:11;;;;;;;11.50;8.50;;;;;;;20.47;53.36;99459.24;215960;1274;152172;-69
2022/09/25 10:55:31;;;;;;;7.70;6.90;;;;;;;20.41;53.49;99451.17;215892;1276;139875;-71
2022/09/25 11:00:51;;;;;;;9.00;7.80;;;;;;;20.32;52.45;99456.39;214945;1276;141212;-68
2022/09/25 11:05:57;;;;;;;8.40;7.10;;;;;;;20.34;52.40;99451.31;215413;1276;140551;-68
2022/09/25 11:11:02;;;;;;;10.90;7.40;;;;;;;20.49;52.16;99440.30;215348;1274;140064;-68
2022/09/25 11:16:09;;;;;;;7.40;6.80;;;;;;;20.56;51.80;99443.37;215123;1275;140003;-68
2022/09/25 11:21:22;;;;;;;10.40;8.40;;;;;;;20.62;51.14;99439.29;214443;1276;141377;-67
2022/09/25 11:26:33;;;;;;;11.50;7.30;;;;;;;20.63;50.81;99436.13;214112;1276;141628;-67
2022/09/25 11:31:41;;;;;;;8.50;7.80;;;;;;;20.71;50.84;99433.48;214237;1276;140838;-67
2022/09/25 11:37:00;;;;;;;7.90;7.20;;;;;;;20.87;50.79;99427.16;213243;1276;139955;-68
2022/09/25 11:42:13;;;;;;;6.40;5.80;;;;;;;20.79;49.82;99426.63;214398;1275;140762;-67
2022/09/25 11:47:23;;;;;;;9.10;8.20;;;;;;;20.48;49.87;99426.02;213080;1276;140658;-67
2022/09/25 11:52:39;;;;;;;6.80;6.10;;;;;;;20.32;49.49;99417.45;213661;1276;140050;-67
2022/09/25 11:57:59;;;;;;;6.60;6.00;;;;;;;20.14;49.49;99412.13;214178;1274;139524;-68
2022/09/25 12:03:14;;;;;;;6.10;5.00;;;;;;;20.02;49.37;99408.84;214194;1274;140547;-68
2022/09/25 12:08:41;;;;;;;4.50;3.80;;;;;;;20.25;49.63;99403.33;214633;1276;141056;-68
2022/09/25 12:14:18;;;;;;;6.30;5.00;;;;;;;20.28;48.83;99401.84;214154;1276;140908;-68
2022/09/25 12:19:44;;;;;;;6.70;5.50;;;;;;;20.22;48.36;99396.88;214689;1276;140738;-68
2022/09/25 12:25:03;;;;;;;3.90;3.60;;;;;;;20.23;48.68;99385.06;214402;1277;140083;-68
2022/09/25 12:30:20;;;;;;;5.20;4.80;;;;;;;20.18;48.64;99383.83;215371;1276;141089;-66
2022/09/25 12:35:51;;;;;;;6.10;3.80;;;;;;;20.41;48.54;99380.71;214734;1275;140608;-68
2022/09/25 12:41:10;;;;;;;4.40;4.00;;;;;;;20.42;48.19;99377.13;215685;1276;140705;-68
2022/09/25 12:46:41;;;;;;;3.80;3.40;;;;;;;20.48;48.02;99377.90;215424;1276;140159;-68
2022/09/25 12:51:50;;;;;;;4.30;3.90;;;;;;;20.62;47.90;99378.30;215943;1276;141033;-68
2022/09/25 12:57:11;;;;;;;4.10;3.70;;;;;;;20.73;47.59;99384.05;213193;1276;140452;-69
2022/09/25 13:02:14;;;;;;;6.20;4.70;;;;;;;20.76;47.08;99377.55;214526;1276;142061;-68
2022/09/25 13:07:50;;;;;;;4.20;3.80;;;;;;;20.66;46.95;99367.52;214677;1275;141035;-68
2022/09/25 13:12:56;;;;;;;4.40;4.10;;;;;;;20.60;47.14;99361.27;215093;1276;140130;-67
2022/09/25 13:17:59;;;;;;;5.60;4.10;;;;;;;20.48;46.71;99356.08;215109;1276;139913;-68
2022/09/25 13:23:13;;;;;;;5.10;4.00;;;;;;;20.46;46.76;99350.27;213506;1276;141782;-67
2022/09/25 13:28:22;;;;;;;5.00;4.50;;;;;;;20.39;46.94;99348.97;213145;1276;142431;-66
2022/09/25 13:33:44;;;;;;;4.70;4.20;;;;;;;20.32;47.06;99344.80;213522;1276;219262;-67
2022/09/25 13:44:40;;;;;;;;;;;;;;;20.01;47.43;99341.10;213405;1276;141457;-67
2022/09/25 13:49:54;;;;;;;6.40;3.80;;;;;;;20.07;47.64;99334.63;213869;1276;125937;-67
2022/09/25 13:55:20;;;;;;;4.40;4.10;;;;;;;20.15;47.11;99337.64;213019;1276;140494;-68
2022/09/25 14:00:32;;;;;;;7.10;4.50;;;;;;;19.97;47.10;99334.47;214150;1275;140062;-68
2022/09/25 14:05:36;;;;;;;7.40;4.50;;;;;;;19.88;47.45;99332.20;212825;1276;140335;-72
2022/09/25 14:10:52;;;;;;;3.60;3.30;;;;;;;19.85;47.88;99330.34;214068;1277;141676;-67
2022/09/25 14:15:59;;;;;;;5.30;4.70;;;;;;;19.72;47.71;99327.42;214790;1275;139820;-66
2022/09/25 14:21:06;;;;;;;4.80;4.40;;;;;;;19.64;48.28;99334.52;212989;1276;141397;-67
2022/09/25 14:26:42;;;;;;;5.00;4.60;;;;;;;19.53;48.22;99322.92;214077;1275;139487;-66
2022/09/25 14:31:50;;;;;;;6.30;4.50;;;;;;;19.46;48.80;99320.25;214239;1275;139909;-68
2022/09/25 14:37:15;;;;;;;8.40;5.40;;;;;;;19.36;49.11;99313.05;214602;1276;140512;-66
2022/09/25 14:42:53;;;;;;;5.60;4.50;;;;;;;19.30;49.28;99313.48;215604;1276;140147;-65
2022/09/25 14:47:58;;;;;;;5.40;4.50;;;;;;;19.10;49.95;99315.48;215655;1276;141017;-66
2022/09/25 14:53:07;;;;;;;7.00;4.50;;;;;;;18.92;50.80;99312.09;215536;1276;141154;-65
2022/09/25 14:58:15;;;;;;;8.40;5.90;;;;;;;18.74;51.36;99312.45;212780;1276;141090;-65
2022/09/25 15:03:20;;;;;;;8.80;5.50;;;;;;;18.53;52.12;99304.60;214901;1276;140340;-67
2022/09/25 15:08:41;;;;;;;9.90;5.80;;;;;;;18.43;52.72;99301.52;214724;1275;159559;-68
2022/09/25 15:13:44;;;;;;;7.70;5.90;;;;;;;18.39;53.14;99304.98;214484;1275;140784;-66
2022/09/25 15:18:58;;;;;;;6.20;4.80;;;;;;;18.39;53.14;99299.74;214348;1276;141021;-70
2022/09/25 15:24:05;;;;;;;12.10;4.90;;;;;;;18.39;52.93;99295.91;213072;1276;140031;-69
2022/09/25 15:29:19;;;;;;;7.40;5.10;;;;;;;18.39;52.94;99290.80;212891;1276;140409;-70
2022/09/25 15:34:28;;;;;;;4.60;4.20;;;;;;;18.39;53.16;99283.67;213651;1276;140276;-69
2022/09/25 15:39:40;;;;;;;6.40;4.90;;;;;;;18.32;53.32;99280.73;213801;1276;140009;-65
2022/09/25 15:44:51;;;;;;;6.20;5.60;;;;;;;18.19;53.77;99276.36;213442;1276;140533;-67
2022/09/25 15:50:23;;;;;;;5.00;4.20;;;;;;;17.97;54.30;99271.06;213239;1276;140984;-67
2022/09/25 15:55:32;;;;;;;4.70;4.40;;;;;;;17.68;54.91;99269.35;212932;1278;141719;-69
2022/09/25 16:06:23;;;;;;;6.20;4.90;;;;;;;17.05;56.37;99270.58;213554;1278;141029;-70
2022/09/25 16:11:26;;;;;;;5.20;4.70;;;;;;;16.74;56.77;99273.30;212672;1279;234963;-70
2022/09/25 16:16:30;;;;;;;5.10;4.50;;;;;;;16.45;57.28;99264.80;214120;1279;140649;-68
2022/09/25 16:21:38;;;;;;;4.30;3.90;;;;;;;16.14;57.84;99265.64;213237;1277;140462;-67
2022/09/25 16:26:44;;;;;;;4.90;4.50;;;;;;;15.85;58.52;99267.44;212600;1278;141191;-68
2022/09/25 16:31:51;;;;;;;4.30;3.90;;;;;;;15.54;58.98;99263.27;215260;1275;140213;-67
2022/09/25 16:37:02;;;;;;;6.30;4.60;;;;;;;15.25;59.34;99258.23;215463;1275;139816;-66
2022/09/25 16:42:25;;;;;;;4.80;4.30;;;;;;;15.02;59.80;99257.74;215435;1276;143258;-68
2022/09/25 16:47:30;;;;;;;4.30;3.80;;;;;;;14.78;60.06;99270.51;215552;1276;139851;-66
2022/09/25 16:52:34;;;;;;;5.00;3.90;;;;;;;14.41;60.23;99271.48;215465;1276;140520;-67
2022/09/25 16:57:37;;;;;;;4.60;3.60;;;;;;;14.05;60.90;99268.94;215702;1276;141151;-72
2022/09/25 17:02:46;;;;;;;3.80;3.50;;;;;;;13.69;61.14;99267.20;215652;1276;139419;-65
2022/09/25 17:07:51;;;;;;;3.80;3.10;;;;;;;13.34;61.92;99264.47;214362;1276;140726;-65
2022/09/25 17:12:58;;;;;;;4.40;4.10;;;;;;;13.00;62.23;99261.17;214715;1274;140002;-65
2022/09/25 17:18:06;;;;;;;4.80;4.00;;;;;;;12.67;62.69;99260.23;214609;1276;140708;-66
2022/09/25 17:23:09;;;;;;;5.90;5.30;;;;;;;12.41;63.25;99254.31;213005;1276;150793;-69
2022/09/25 17:28:13;;;;;;;8.70;7.70;;;;;;;12.31;63.97;99250.65;213366;1276;140860;-67
2022/09/25 17:33:20;;;;;;;6.80;6.10;;;;;;;12.26;63.73;99249.55;213866;1275;140324;-68
2022/09/25 17:38:22;;;;;;;6.80;6.20;;;;;;;12.15;63.72;99251.47;213360;1276;140346;-67
2022/09/25 17:43:26;;;;;;;6.10;5.50;;;;;;;11.93;64.45;99254.39;213799;1276;141006;-67
2022/09/25 17:48:30;;;;;;;6.00;5.40;;;;;;;11.61;64.62;99251.89;213975;1276;142542;-67
2022/09/25 17:53:34;;;;;;;5.90;5.30;;;;;;;11.33;65.26;99252.16;213005;1276;139878;-68
2022/09/25 17:58:38;;;;;;;6.00;5.40;;;;;;;11.08;65.36;99253.80;213029;1276;159756;-67
2022/09/25 18:03:41;;;;;;;6.40;5.80;;;;;;;10.81;65.69;99253.31;213741;1277;140021;-67
2022/09/25 18:08:45;;;;;;;8.50;7.00;;;;;;;10.64;66.35;99257.86;213537;1276;142380;-67
2022/09/25 18:14:00;;;;;;;11.30;8.10;;;;;;;10.56;66.89;99255.34;214208;1276;141267;-68
2022/09/25 18:24:55;;;;;;;8.90;8.00;;;;;;;10.61;67.34;99243.91;214133;1277;140802;-68
2022/09/25 18:30:00;;;;;;;9.10;8.00;;;;;;;10.55;67.33;99247.71;214340;1276;139732;-67
2022/09/25 18:35:07;;;;;;;8.20;7.40;;;;;;;10.39;67.36;99255.05;214185;1276;139800;-67
2022/09/25 18:40:13;;;;;;;7.60;6.80;;;;;;;10.20;67.72;99256.32;214997;1277;141048;-68
2022/09/25 18:45:19;;;;;;;13.20;7.80;;;;;;;10.16;67.90;99251.16;215624;1276;141673;-67
2022/09/25 18:50:20;;;;;;;7.50;6.70;;;;;;;10.08;67.98;99246.27;214171;1276;141378;-67
2022/09/25 18:55:22;;;;;;;9.80;7.80;;;;;;;9.90;68.07;99248.80;215914;1276;141170;-66
2022/09/25 19:00:24;;;;;;;8.10;6.20;;;;;;;9.84;68.49;99254.65;214783;1276;140589;-66
2022/09/25 19:05:28;;;;;;;10.30;7.90;;;;;;;9.70;68.37;99253.16;215790;1276;140842;-69
2022/09/25 19:10:33;;;;;;;11.00;9.00;;;;;;;9.51;68.66;99253.20;213406;1276;142819;-66
2022/09/25 19:15:36;;;;;;;9.20;8.10;;;;;;;9.38;68.86;99247.23;216054;1275;141637;-70
2022/09/25 19:20:53;;;;;;;17.60;13.90;;;;;;;9.24;69.22;99244.77;215174;1276;140283;-68
2022/09/25 19:26:01;;;;;;;17.10;13.30;;;;;;;9.11;69.57;99237.31;212986;1276;141530;-67
2022/09/25 19:31:13;;;;;;;23.50;17.20;;;;;;;8.99;69.95;99234.86;214235;1276;141941;-67
2022/09/25 19:36:25;;;;;;;28.00;18.40;;;;;;;8.98;70.44;99236.85;213820;1276;141723;-67
2022/09/25 19:41:34;;;;;;;21.20;15.80;;;;;;;9.00;70.35;99235.87;213046;1276;142538;-67
2022/09/25 19:46:38;;;;;;;22.30;17.80;;;;;;;8.99;70.30;99232.08;214250;1276;140595;-68
2022/09/25 19:51:42;;;;;;;26.80;17.80;;;;;;;8.91;70.14;99234.00;214499;1276;141997;-68
2022/09/25 19:56:44;;;;;;;21.50;15.40;;;;;;;8.68;69.99;99227.16;213402;1276;141102;-67
2022/09/25 20:01:47;;;;;;;36.30;20.60;;;;;;;8.38;70.25;99228.70;214128;1276;142213;-67
2022/09/25 20:06:51;;;;;;;32.20;19.20;;;;;;;8.34;71.11;99229.19;213000;1276;143011;-67
2022/09/25 20:11:56;;;;;;;30.00;20.40;;;;;;;8.34;70.97;99225.30;213716;1275;142545;-67
2022/09/25 20:16:59;;;;;;;31.00;19.90;;;;;;;8.30;71.36;99234.17;213284;1276;143277;-66
2022/09/25 20:22:02;;;;;;;32.60;22.40;;;;;;;8.27;71.59;99234.69;213625;1276;142104;-66
2022/09/25 20:27:06;;;;;;;26.10;16.00;;;;;;;8.16;71.20;99230.80;213289;1276;142343;-66
2022/09/25 20:32:10;;;;;;;25.00;16.50;;;;;;;8.00;71.65;99227.55;213946;1275;142617;-67
2022/09/25 20:37:14;;;;;;;28.10;21.40;;;;;;;7.81;71.62;99225.30;214815;1276;140991;-67
2022/09/25 20:42:18;;;;;;;26.10;17.80;;;;;;;7.70;71.90;99228.05;212961;1276;141579;-67
2022/09/25 20:47:21;;;;;;;25.80;21.60;;;;;;;7.65;72.38;99225.63;214075;1276;142152;-67
2022/09/25 20:52:24;;;;;;;30.40;21.60;;;;;;;7.62;72.65;99220.23;215594;1276;141321;-67
2022/09/25 20:57:31;;;;;;;28.40;23.90;;;;;;;7.66;72.68;99222.06;215953;1276;141113;-67
2022/09/25 21:02:34;;;;;;;28.50;21.80;;;;;;;7.69;72.44;99219.48;214867;1276;140671;-66
2022/09/25 21:07:37;;;;;;;32.90;23.00;;;;;;;7.68;72.45;99221.00;214134;1276;140883;-65
2022/09/25 21:12:40;;;;;;;33.20;22.20;;;;;;;7.59;72.35;99223.24;215722;1276;140669;-69
2022/09/25 21:17:44;;;;;;;36.30;25.00;;;;;;;7.45;72.50;99221.81;215412;1276;141172;-67
2022/09/25 21:22:47;;;;;;;36.80;26.00;;;;;;;7.35;72.21;99221.88;213848;1276;142439;-67
2022/09/25 21:27:50;;;;;;;35.50;27.40;;;;;;;7.28;72.74;99215.77;213528;1276;141529;-66
2022/09/25 21:32:54;;;;;;;39.30;26.50;;;;;;;7.25;72.56;99208.14;214212;1275;141251;-66
2022/09/25 21:37:57;;;;;;;39.00;26.50;;;;;;;7.22;72.48;99205.94;215244;1276;140930;-67
2022/09/25 21:43:02;;;;;;;33.50;24.50;;;;;;;7.15;72.96;99203.53;213075;1276;143495;-67
2022/09/25 21:48:06;;;;;;;39.00;29.40;;;;;;;7.07;73.36;99200.25;213834;1276;140031;-67
2022/09/25 21:53:12;;;;;;;38.80;26.80;;;;;;;7.06;73.39;99198.38;212878;1276;1747597;-69
2022/09/25 21:58:16;;;;;;;31.60;25.90;;;;;;;7.05;73.42;99194.91;214212;1276;141696;-66
2022/09/25 22:03:19;;;;;;;36.50;24.80;;;;;;;6.98;73.07;99190.23;214344;1276;140844;-67
2022/09/25 22:08:23;;;;;;;35.60;28.70;;;;;;;6.91;73.30;99178.42;213307;1276;141387;-67
2022/09/25 22:13:29;;;;;;;41.00;27.80;;;;;;;6.83;73.39;99171.64;213152;1276;143175;-66
2022/09/25 22:19:01;;;;;;;42.20;30.30;;;;;;;6.70;73.56;99168.96;213319;1276;141158;-66
2022/09/25 22:24:05;;;;;;;44.10;31.10;;;;;;;6.64;73.84;99162.40;213110;1277;142768;-67
2022/09/25 22:29:09;;;;;;;40.00;30.70;;;;;;;6.62;74.09;99156.15;213995;1276;141679;-66
2022/09/25 22:34:23;;;;;;;46.00;33.20;;;;;;;6.59;74.04;99146.89;213687;1276;141322;-67
2022/09/25 22:39:27;;;;;;;42.90;30.00;;;;;;;6.53;73.49;99143.59;213286;1277;141195;-67
2022/09/25 22:44:30;;;;;;;52.70;31.50;;;;;;;6.35;74.09;99138.64;215158;1276;141173;-67
2022/09/25 22:49:33;;;;;;;48.50;33.90;;;;;;;6.29;74.81;99138.27;215260;1275;140191;-67
2022/09/25 22:54:37;;;;;;;47.10;33.30;;;;;;;6.36;74.60;99137.82;215522;1277;140934;-68
2022/09/25 22:59:40;;;;;;;46.10;30.50;;;;;;;6.39;74.41;99138.72;215803;1276;140767;-68
2022/09/25 23:04:44;;;;;;;44.60;34.10;;;;;;;6.40;74.23;99131.34;215729;1276;140675;-67
2022/09/25 23:09:47;;;;;;;40.40;29.70;;;;;;;6.31;74.35;99126.02;214807;1276;140106;-67
2022/09/25 23:14:50;;;;;;;47.80;29.30;;;;;;;6.16;74.34;99123.33;215496;1276;140528;-67
2022/09/25 23:19:53;;;;;;;50.80;35.60;;;;;;;6.05;74.69;99121.18;213023;1276;142057;-65
2022/09/25 23:24:56;;;;;;;42.80;32.90;;;;;;;6.05;74.56;99117.04;214188;1276;141298;-67
2022/09/25 23:29:59;;;;;;;45.20;33.00;;;;;;;6.03;74.73;99115.80;214432;1276;140859;-66
2022/09/25 23:35:02;;;;;;;42.90;31.30;;;;;;;6.03;75.03;99110.63;214475;1276;141394;-66
2022/09/25 23:40:06;;;;;;;40.40;31.10;;;;;;;6.03;74.95;99103.06;214168;1276;141327;-66
2022/09/25 23:45:13;;;;;;;;;;;;;;;5.95;74.91;99097.85;213285;1276;140636;-67
2022/09/25 23:50:15;;;;;;;40.00;31.10;;;;;;;5.84;75.20;99097.68;213916;1277;126170;-66